Cherry Fork, Ohio
Current Conditions -  °F | °C
As of 11:15 PM on Sunday 25 Jan 2015 (Local Time) from KFGX Reporting Station
Drizzle Drizzle  
Wind Chill: 32°   Ceiling: 2600
Heat Index: 36°   Visibility: 3mi
Dew Point: 36°   Wind: 5mph
Humidity: 99%   Direction: 60°ENE
Pressure: 29.67"   Gusts: NA
Location:  38.89°N, 83.61°W
Report Text: KFGX 260415Z AUTO 06004KT 3SM DZ OVC026 02/02 A2967 RMK AO2 T00220021
Loading
Personal Weather Stations






























Interactive Weather Map New forecast layout! Learn more

10-Day Weather Forecast

Advertisements
Track Severe Weather on mobile